Terminal Aerodrome Forecast
Issued by NWS

Current Version | Previous Version | Text Only | Print | Product List | Glossary Off
Versions: 1 2 3 4 5 6 7 8 9 10 11 12 13 14 15 16

000
FTUS41 KILN 220900 AAA
TAFLCK
TAF AMD
KLCK 220951Z 2210/2306 24006KT P6SM SCT028 OVC050
      TEMPO 2210/2212 5SM -SHRA BKN028
     FM221200 25009KT P6SM SCT015 OVC050
      TEMPO 2212/2214 BKN015
     FM221400 29014KT P6SM SCT030 BKN050
     FM221600 30016G24KT P6SM FEW040
     FM230000 32011KT P6SM SKC=

USA.gov is the U.S. government's official web portal to all federal, state and local government web resources and services.